createdAt,value
2023-05-23T00:03:18.750Z,5.13
2023-05-23T00:08:21.142Z,4.40
2023-05-23T00:13:23.408Z,4.28
2023-05-23T00:18:25.916Z,4.22
2023-05-23T00:23:30.053Z,4.43
2023-05-23T00:28:32.362Z,5.13
2023-05-23T00:33:35.272Z,5.20
2023-05-23T00:38:37.585Z,4.95
2023-05-23T00:43:39.833Z,5.55
2023-05-23T00:48:42.271Z,5.47
2023-05-23T00:53:44.603Z,5.80
2023-05-23T00:58:47.041Z,4.95
2023-05-23T01:03:49.299Z,5.85
2023-05-23T01:08:52.125Z,4.97
2023-05-23T01:14:01.694Z,5.03
2023-05-23T01:19:27.343Z,5.20
2023-05-23T01:24:36.785Z,5.25
2023-05-23T01:29:44.130Z,4.97
2023-05-23T01:34:48.109Z,4.43
2023-05-23T01:39:50.374Z,4.55
2023-05-23T01:44:52.902Z,4.38
2023-05-23T01:49:57.743Z,4.63
2023-05-23T01:55:01.153Z,4.53
2023-05-23T02:00:06.409Z,4.65
2023-05-23T02:05:10.501Z,4.10
2023-05-23T02:10:12.743Z,4.97
2023-05-23T02:15:15.088Z,3.97
2023-05-23T02:20:19.299Z,4.40
2023-05-23T02:25:23.572Z,5.22
2023-05-23T02:30:25.771Z,5.03
2023-05-23T02:35:27.968Z,4.32
2023-05-23T02:40:30.260Z,5.00
2023-05-23T02:45:32.530Z,5.32
2023-05-23T02:50:34.744Z,5.38
2023-05-23T02:55:37.157Z,4.75
2023-05-23T03:00:39.912Z,4.85
2023-05-23T03:05:42.508Z,4.93
2023-05-23T03:10:44.812Z,5.70
2023-05-23T03:15:47.199Z,5.25
2023-05-23T03:20:49.369Z,4.80
2023-05-23T03:25:51.639Z,5.03
2023-05-23T03:30:53.919Z,4.80
2023-05-23T03:35:57.107Z,5.10
2023-05-23T03:40:59.339Z,5.45
2023-05-23T03:46:01.612Z,5.25
2023-05-23T03:51:03.933Z,4.85
2023-05-23T03:56:06.778Z,5.13
2023-05-23T04:01:09.818Z,4.97
2023-05-23T04:06:14.164Z,4.32
2023-05-23T04:11:17.313Z,4.93
2023-05-23T04:16:20.058Z,5.35
2023-05-23T04:21:22.335Z,5.63
2023-05-23T04:26:24.648Z,5.00
2023-05-23T04:31:27.453Z,4.70
2023-05-23T04:36:30.685Z,5.13
2023-05-23T04:41:33.101Z,5.38
2023-05-23T04:46:35.404Z,4.95
2023-05-23T04:51:38.720Z,5.20
2023-05-23T04:56:41.089Z,5.57
2023-05-23T05:01:43.354Z,6.05
2023-05-23T05:06:46.053Z,5.60
2023-05-23T05:11:48.253Z,4.93
2023-05-23T05:16:51.272Z,5.35
2023-05-23T05:21:53.532Z,5.53
2023-05-23T05:26:56.107Z,6.00
2023-05-23T05:31:58.425Z,4.93
2023-05-23T05:37:00.648Z,6.00
2023-05-23T05:42:04.134Z,4.95
2023-05-23T05:47:06.786Z,5.00
2023-05-23T05:52:09.246Z,6.38
2023-05-23T05:57:11.609Z,5.82
2023-05-23T06:02:13.877Z,6.53
2023-05-23T06:07:16.190Z,6.20
2023-05-23T06:12:18.459Z,6.43
2023-05-23T06:17:21.152Z,6.63
2023-05-23T06:22:23.574Z,5.63
2023-05-23T06:27:25.985Z,5.32
2023-05-23T06:32:28.309Z,5.25
2023-05-23T06:37:30.579Z,5.25
2023-05-23T06:42:32.843Z,6.43
2023-05-23T06:47:35.144Z,5.10
2023-05-23T06:52:37.482Z,5.75
2023-05-23T06:57:39.730Z,4.65
2023-05-23T07:02:42.082Z,4.90
2023-05-23T07:07:44.471Z,3.95
2023-05-23T07:12:47.581Z,4.63
2023-05-23T07:17:49.875Z,4.15
2023-05-23T07:22:52.089Z,4.28
2023-05-23T07:27:55.219Z,2.80
2023-05-23T07:32:58.122Z,3.40
2023-05-23T07:38:00.440Z,3.17
2023-05-23T07:43:02.749Z,3.97
2023-05-23T07:48:05.214Z,4.22
2023-05-23T07:53:07.543Z,3.88
2023-05-23T07:58:09.778Z,3.47
2023-05-23T08:03:12.385Z,4.45
2023-05-23T08:08:14.742Z,3.78
2023-05-23T08:13:17.029Z,3.10
2023-05-23T08:18:19.343Z,3.17
2023-05-23T08:23:21.655Z,2.90
2023-05-23T08:28:23.919Z,2.65
2023-05-23T08:33:26.207Z,2.00
2023-05-23T08:38:28.446Z,2.60
2023-05-23T08:43:30.846Z,2.25
2023-05-23T08:48:35.473Z,2.47
2023-05-23T08:53:41.559Z,2.40
2023-05-23T08:58:44.267Z,2.25
2023-05-23T09:03:47.144Z,2.88
2023-05-23T09:08:49.774Z,3.78
2023-05-23T09:13:52.408Z,2.30
2023-05-23T09:18:55.069Z,2.33
2023-05-23T09:23:57.456Z,2.38
2023-05-23T09:29:01.074Z,2.65
2023-05-23T09:34:05.084Z,2.30
2023-05-23T09:39:08.535Z,2.65
2023-05-23T09:44:10.948Z,3.15
2023-05-23T09:49:19.436Z,3.28
2023-05-23T09:54:21.698Z,2.58
2023-05-23T09:59:27.050Z,2.50
2023-05-23T10:04:35.777Z,2.20
2023-05-23T10:09:40.659Z,2.47
2023-05-23T10:14:49.171Z,2.60
2023-05-23T10:20:03.014Z,2.63
2023-05-23T10:25:07.495Z,2.38
2023-05-23T10:30:11.023Z,2.55
2023-05-23T10:35:42.463Z,3.78
2023-05-23T10:40:53.679Z,3.00
2023-05-23T10:45:56.119Z,2.78
2023-05-23T10:51:07.106Z,2.72
2023-05-23T10:56:10.946Z,2.65
2023-05-23T11:01:20.459Z,2.75
2023-05-23T11:06:45.595Z,2.45
2023-05-23T11:12:05.836Z,2.92
2023-05-23T11:17:14.123Z,2.63
2023-05-23T11:22:16.468Z,2.22
2023-05-23T11:27:32.536Z,2.33
2023-05-23T11:32:35.233Z,2.22
2023-05-23T11:37:40.022Z,2.42
2023-05-23T11:42:44.573Z,2.60
2023-05-23T11:47:46.911Z,2.28
2023-05-23T11:52:52.330Z,2.85
2023-05-23T11:57:56.905Z,2.55
2023-05-23T12:02:59.327Z,2.72
2023-05-23T12:08:01.837Z,2.47
2023-05-23T12:13:05.556Z,2.70
2023-05-23T12:18:08.627Z,2.42
2023-05-23T12:23:19.607Z,2.80
2023-05-23T12:28:23.340Z,2.80
2023-05-23T12:33:26.230Z,3.28
2023-05-23T12:38:29.336Z,2.70
2023-05-23T12:43:31.599Z,2.83
2023-05-23T12:48:34.336Z,3.00
2023-05-23T12:53:37.011Z,2.72
2023-05-23T12:58:39.473Z,2.75
2023-05-23T13:03:41.904Z,3.03
2023-05-23T13:08:44.613Z,2.30
2023-05-23T13:13:47.576Z,2.42
2023-05-23T13:18:49.858Z,2.75
2023-05-23T13:23:52.182Z,2.58
2023-05-23T13:28:54.432Z,2.30
2023-05-23T13:33:56.773Z,2.40
2023-05-23T13:38:59.087Z,2.20
2023-05-23T13:44:01.282Z,1.88
2023-05-23T13:49:03.568Z,2.15
2023-05-23T13:54:06.618Z,2.65
2023-05-23T13:59:08.942Z,2.03
2023-05-23T14:04:11.257Z,2.55
2023-05-23T14:09:14.248Z,1.85
2023-05-23T14:14:17.117Z,2.20
2023-05-23T14:19:19.886Z,1.90
2023-05-23T14:24:22.838Z,1.85
2023-05-23T14:29:25.093Z,2.20
2023-05-23T14:34:27.505Z,1.90
2023-05-23T14:39:29.801Z,2.17
2023-05-23T14:44:32.145Z,1.83
2023-05-23T14:49:34.477Z,2.03
2023-05-23T14:54:36.927Z,2.05
2023-05-23T14:59:39.237Z,2.25
2023-05-23T15:04:41.455Z,1.88
2023-05-23T15:09:43.638Z,2.13
2023-05-23T15:14:46.001Z,2.20
2023-05-23T15:19:48.507Z,2.00
2023-05-23T15:24:50.779Z,1.88
2023-05-23T15:29:53.094Z,1.92
2023-05-23T15:34:55.469Z,2.30
2023-05-23T15:39:57.805Z,2.15
2023-05-23T15:45:00.247Z,2.20
2023-05-23T15:50:02.597Z,2.42
2023-05-23T15:55:06.121Z,2.92
2023-05-23T16:00:09.187Z,2.15
2023-05-23T16:05:11.471Z,2.15
2023-05-23T16:10:14.802Z,1.92
2023-05-23T16:15:17.069Z,2.38
2023-05-23T16:20:19.536Z,2.10
2023-05-23T16:25:21.958Z,2.10
2023-05-23T16:30:26.804Z,2.30
2023-05-23T16:35:29.120Z,1.70
2023-05-23T16:40:31.364Z,2.20
2023-05-23T16:45:33.649Z,2.13
2023-05-23T16:50:36.055Z,2.38
2023-05-23T16:55:38.536Z,1.90
2023-05-23T17:00:41.129Z,2.00
2023-05-23T17:05:43.662Z,2.20
2023-05-23T17:10:46.396Z,2.38
2023-05-23T17:15:48.816Z,2.25
2023-05-23T17:20:51.086Z,2.85
2023-05-23T17:25:53.434Z,2.20
2023-05-23T17:30:55.864Z,2.15
2023-05-23T17:35:58.093Z,2.10
2023-05-23T17:41:00.924Z,2.45
2023-05-23T17:46:03.199Z,2.72
2023-05-23T17:51:05.634Z,2.85
2023-05-23T17:56:12.290Z,2.75
2023-05-23T18:01:14.904Z,2.42
2023-05-23T18:06:17.201Z,2.58
2023-05-23T18:11:20.045Z,3.17
2023-05-23T18:16:23.441Z,2.80
2023-05-23T18:21:27.193Z,3.30
2023-05-23T18:26:29.548Z,2.55
2023-05-23T18:31:31.887Z,2.70
2023-05-23T18:36:34.196Z,2.33
2023-05-23T18:41:36.590Z,2.95
2023-05-23T18:46:38.938Z,3.60
2023-05-23T18:51:41.502Z,3.60
2023-05-23T18:56:43.790Z,3.10
2023-05-23T19:01:46.823Z,2.83
2023-05-23T19:06:50.201Z,4.03
2023-05-23T19:11:52.545Z,3.30
2023-05-23T19:16:55.916Z,3.78
2023-05-23T19:21:58.619Z,3.00
2023-05-23T19:27:02.370Z,3.25
2023-05-23T19:32:04.886Z,3.15
2023-05-23T19:37:07.155Z,3.00
2023-05-23T19:42:09.425Z,2.72
2023-05-23T19:47:12.635Z,3.83
2023-05-23T19:52:14.870Z,3.28
2023-05-23T19:57:17.501Z,3.00
2023-05-23T20:02:19.711Z,2.67
2023-05-23T20:07:21.887Z,2.65
2023-05-23T20:12:24.198Z,4.13
2023-05-23T20:17:26.556Z,4.50
2023-05-23T20:22:29.146Z,5.13
2023-05-23T20:27:31.634Z,4.25
2023-05-23T20:32:33.982Z,4.18
2023-05-23T20:37:36.399Z,4.65
2023-05-23T20:42:38.938Z,4.18
2023-05-23T20:47:44.188Z,3.40
2023-05-23T20:52:46.869Z,3.40
2023-05-23T20:57:49.096Z,3.38
2023-05-23T21:02:51.564Z,4.20
2023-05-23T21:07:54.005Z,3.85
2023-05-23T21:12:56.415Z,4.15
2023-05-23T21:17:59.278Z,4.43
2023-05-23T21:23:01.709Z,5.03
2023-05-23T21:28:04.000Z,4.97
2023-05-23T21:33:06.456Z,4.50
2023-05-23T21:38:08.781Z,3.60
2023-05-23T21:43:11.075Z,4.25
2023-05-23T21:48:13.393Z,4.20
2023-05-23T21:53:15.924Z,4.32
2023-05-23T21:58:18.188Z,4.30
2023-05-23T22:03:20.671Z,3.85
2023-05-23T22:08:22.886Z,4.15
2023-05-23T22:13:25.156Z,4.40
2023-05-23T22:18:30.625Z,5.68
2023-05-23T22:23:37.841Z,5.18
2023-05-23T22:28:40.124Z,4.72
2023-05-23T22:33:42.991Z,4.85
2023-05-23T22:38:45.746Z,5.20
2023-05-23T22:43:48.054Z,5.20
2023-05-23T22:48:52.933Z,5.30
2023-05-23T22:53:55.392Z,5.13
2023-05-23T22:58:57.596Z,5.13
2023-05-23T23:03:59.919Z,5.40
2023-05-23T23:09:02.154Z,5.18
2023-05-23T23:14:04.377Z,4.97
2023-05-23T23:19:06.747Z,3.92
2023-05-23T23:24:09.494Z,4.57
2023-05-23T23:29:11.738Z,4.32
2023-05-23T23:34:13.991Z,4.82
2023-05-23T23:39:16.751Z,4.28
2023-05-23T23:44:19.231Z,4.25
2023-05-23T23:49:21.489Z,4.53
2023-05-23T23:54:23.766Z,4.40
2023-05-23T23:59:26.265Z,4.18
